createdAt,value
2019-06-26T00:00:16.617Z,84.6
2019-06-26T00:01:16.681Z,84.5
2019-06-26T00:02:16.946Z,84.7
2019-06-26T00:03:17.212Z,84.8
2019-06-26T00:04:16.488Z,84.8
2019-06-26T00:05:16.751Z,84.9
2019-06-26T00:06:17.017Z,85.0
2019-06-26T00:07:16.304Z,84.8
2019-06-26T00:08:16.561Z,84.7
2019-06-26T00:09:16.853Z,84.7
2019-06-26T00:10:17.143Z,84.7
2019-06-26T00:11:17.198Z,84.8
2019-06-26T00:12:16.475Z,84.8
2019-06-26T00:13:26.949Z,84.9
2019-06-26T00:14:16.338Z,85.1
2019-06-26T00:15:16.605Z,85.2
2019-06-26T00:16:16.885Z,85.3
2019-06-26T00:17:17.154Z,85.0
2019-06-26T00:18:16.437Z,85.3
2019-06-26T00:19:16.704Z,85.3
2019-06-26T00:20:17.196Z,85.3
2019-06-26T00:21:17.046Z,85.4
2019-06-26T00:22:16.319Z,85.5
2019-06-26T00:23:16.616Z,85.6
2019-06-26T00:24:16.884Z,85.8
2019-06-26T00:25:17.160Z,85.8
2019-06-26T00:26:16.428Z,85.8
2019-06-26T00:27:16.707Z,86.1
2019-06-26T00:28:17.149Z,85.8
2019-06-26T00:29:16.427Z,85.8
2019-06-26T00:30:16.704Z,85.9
2019-06-26T00:31:16.778Z,85.8
2019-06-26T00:32:17.041Z,86.0
2019-06-26T00:33:16.322Z,86.0
2019-06-26T00:34:16.606Z,85.9
2019-06-26T00:35:16.878Z,86.1
2019-06-26T00:36:17.145Z,86.2
2019-06-26T00:37:16.421Z,86.2
2019-06-26T00:38:16.734Z,86.3
2019-06-26T00:39:17.005Z,86.5
2019-06-26T00:40:16.313Z,86.5
2019-06-26T00:41:16.356Z,86.5
2019-06-26T00:42:16.621Z,86.6
2019-06-26T00:43:16.886Z,86.7
2019-06-26T00:44:17.216Z,86.8
2019-06-26T00:45:16.489Z,86.8
2019-06-26T00:46:16.763Z,86.8
2019-06-26T00:47:17.039Z,86.8
2019-06-26T00:48:16.330Z,86.8
2019-06-26T00:49:16.606Z,86.8
2019-06-26T00:50:16.885Z,86.9
2019-06-26T00:51:16.948Z,86.8
2019-06-26T00:52:17.229Z,86.8
2019-06-26T00:53:16.512Z,87.0
2019-06-26T00:54:16.782Z,87.0
2019-06-26T00:55:17.051Z,87.0
2019-06-26T00:56:16.316Z,87.0
2019-06-26T00:57:16.579Z,87.0
2019-06-26T00:58:16.945Z,87.0
2019-06-26T00:59:17.227Z,87.2
2019-06-26T01:00:16.522Z,87.3
2019-06-26T01:01:16.571Z,87.5
2019-06-26T01:02:16.833Z,87.4
2019-06-26T01:03:17.198Z,87.4
2019-06-26T01:04:16.481Z,87.6
2019-06-26T01:05:16.761Z,87.8
2019-06-26T01:06:17.036Z,87.8
2019-06-26T01:07:16.310Z,87.8
2019-06-26T01:08:16.602Z,87.7
2019-06-26T01:09:16.870Z,87.8
2019-06-26T01:10:17.156Z,87.8
2019-06-26T01:11:17.214Z,87.8
2019-06-26T01:12:16.474Z,87.8
2019-06-26T01:13:16.747Z,87.8
2019-06-26T01:14:17.016Z,87.8
2019-06-26T01:15:16.311Z,87.8
2019-06-26T01:16:16.583Z,88.0
2019-06-26T01:17:16.847Z,87.9
2019-06-26T01:18:17.113Z,87.9
2019-06-26T01:19:16.396Z,88.0
2019-06-26T01:20:16.683Z,87.8
2019-06-26T01:21:16.751Z,88.0
2019-06-26T01:22:17.029Z,87.9
2019-06-26T01:23:16.293Z,87.8
2019-06-26T01:24:16.565Z,87.9
2019-06-26T01:25:16.836Z,88.1
2019-06-26T01:26:17.102Z,88.2
2019-06-26T01:27:16.373Z,88.1
2019-06-26T01:28:16.639Z,88.1
2019-06-26T01:29:16.902Z,88.2
2019-06-26T01:30:17.180Z,88.3
2019-06-26T01:31:17.229Z,88.3
2019-06-26T01:32:16.507Z,88.3
2019-06-26T01:33:16.773Z,88.3
2019-06-26T01:34:17.060Z,88.4
2019-06-26T01:35:16.326Z,88.5
2019-06-26T01:36:16.606Z,88.7
2019-06-26T01:37:16.873Z,88.5
2019-06-26T01:38:17.146Z,88.6
2019-06-26T01:39:16.427Z,88.5
2019-06-26T01:40:16.706Z,88.5
2019-06-26T01:41:16.775Z,88.8
2019-06-26T01:42:17.086Z,88.8
2019-06-26T01:43:16.368Z,89.0
2019-06-26T01:44:16.725Z,89.0
2019-06-26T01:45:17.035Z,88.8
2019-06-26T01:46:16.308Z,88.9
2019-06-26T01:47:16.587Z,88.7
2019-06-26T01:48:16.923Z,88.7
2019-06-26T01:49:17.230Z,88.7
2019-06-26T01:50:16.509Z,88.7
2019-06-26T01:51:16.585Z,88.8
2019-06-26T01:52:16.841Z,88.7
2019-06-26T01:53:17.116Z,88.8
2019-06-26T01:54:16.393Z,88.8
2019-06-26T01:55:16.663Z,88.8
2019-06-26T01:56:16.942Z,88.8
2019-06-26T01:57:17.219Z,88.9
2019-06-26T01:58:16.512Z,88.9
2019-06-26T01:59:16.780Z,88.9
2019-06-26T02:00:17.149Z,88.9
2019-06-26T02:01:17.136Z,88.8
2019-06-26T02:02:16.415Z,89.0
2019-06-26T02:03:16.708Z,89.2
2019-06-26T02:04:16.977Z,89.2
2019-06-26T02:05:17.972Z,89.2
2019-06-26T02:06:17.260Z,89.2
2019-06-26T02:07:16.555Z,89.3
2019-06-26T02:08:16.822Z,89.1
2019-06-26T02:09:17.094Z,89.0
2019-06-26T02:10:16.364Z,89.2
2019-06-26T02:11:16.441Z,89.3
2019-06-26T02:12:16.713Z,89.3
2019-06-26T02:13:16.993Z,89.3
2019-06-26T02:14:31.317Z,89.2
2019-06-26T02:15:16.993Z,89.5
2019-06-26T02:16:16.270Z,89.5
2019-06-26T02:17:16.551Z,89.6
2019-06-26T02:18:16.852Z,89.7
2019-06-26T02:19:17.119Z,89.8
2019-06-26T02:20:16.404Z,89.9
2019-06-26T02:21:16.452Z,90.0
2019-06-26T02:22:16.721Z,90.1
2019-06-26T02:23:17.004Z,90.1
2019-06-26T02:24:16.273Z,90.3
2019-06-26T02:25:16.547Z,90.3
2019-06-26T02:26:16.831Z,90.3
2019-06-26T02:27:17.103Z,90.3
2019-06-26T02:28:16.377Z,90.3
2019-06-26T02:29:16.648Z,90.5
2019-06-26T02:30:16.960Z,90.5
2019-06-26T02:31:16.992Z,90.5
2019-06-26T02:32:16.269Z,90.5
2019-06-26T02:33:16.564Z,90.5
2019-06-26T02:34:16.863Z,90.5
2019-06-26T02:35:17.184Z,90.5
2019-06-26T02:36:16.471Z,90.6
2019-06-26T02:37:16.750Z,90.8
2019-06-26T02:38:17.026Z,90.9
2019-06-26T02:39:16.300Z,90.8
2019-06-26T02:40:16.597Z,90.9
2019-06-26T02:41:16.668Z,90.9
2019-06-26T02:42:16.943Z,90.9
2019-06-26T02:43:17.253Z,90.9
2019-06-26T02:44:16.512Z,91.1
2019-06-26T02:45:16.806Z,90.9
2019-06-26T02:46:17.124Z,91.1
2019-06-26T02:47:20.995Z,91.0
2019-06-26T02:48:16.324Z,91.0
2019-06-26T02:49:16.661Z,91.0
2019-06-26T02:50:16.947Z,90.8
2019-06-26T02:51:17.006Z,90.9
2019-06-26T02:52:16.299Z,91.1
2019-06-26T02:53:16.568Z,90.8
2019-06-26T02:54:16.859Z,91.0
2019-06-26T02:55:17.153Z,90.9
2019-06-26T02:56:16.415Z,90.9
2019-06-26T02:57:16.697Z,91.0
2019-06-26T02:58:17.025Z,91.0
2019-06-26T02:59:16.340Z,90.9
2019-06-26T03:00:16.654Z,90.8
2019-06-26T03:01:16.698Z,90.7
2019-06-26T03:02:16.986Z,90.8
2019-06-26T03:03:16.273Z,90.9
2019-06-26T03:04:16.544Z,91.1
2019-06-26T03:05:17.039Z,91.2
2019-06-26T03:06:16.311Z,91.2
2019-06-26T03:07:16.580Z,91.3
2019-06-26T03:08:16.868Z,91.3
2019-06-26T03:09:17.144Z,91.3
2019-06-26T03:10:16.439Z,91.3
2019-06-26T03:11:16.489Z,91.3
2019-06-26T03:12:16.791Z,91.4
2019-06-26T03:13:17.072Z,91.3
2019-06-26T03:14:16.342Z,91.4
2019-06-26T03:15:16.613Z,91.4
2019-06-26T03:16:16.915Z,91.6
2019-06-26T03:17:17.239Z,91.6
2019-06-26T03:18:16.519Z,91.3
2019-06-26T03:19:16.809Z,91.4
2019-06-26T03:20:17.105Z,91.4
2019-06-26T03:21:17.160Z,91.5
2019-06-26T03:22:16.440Z,91.7
2019-06-26T03:23:16.714Z,91.4
2019-06-26T03:24:17.002Z,91.4
2019-06-26T03:25:16.273Z,91.4
2019-06-26T03:26:16.547Z,91.6
2019-06-26T03:27:16.828Z,91.6
2019-06-26T03:28:17.101Z,91.6
2019-06-26T03:29:16.371Z,91.5
2019-06-26T03:30:16.671Z,91.5
2019-06-26T03:31:16.748Z,91.5
2019-06-26T03:32:17.067Z,91.6
2019-06-26T03:33:16.354Z,91.5
2019-06-26T03:34:16.639Z,91.2
2019-06-26T03:35:16.914Z,91.2
2019-06-26T03:36:17.183Z,91.3
2019-06-26T03:37:16.467Z,91.1
2019-06-26T03:38:16.726Z,91.1
2019-06-26T03:39:17.052Z,91.0
2019-06-26T03:40:16.332Z,90.8
2019-06-26T03:41:16.444Z,91.1
2019-06-26T03:42:16.775Z,91.1
2019-06-26T03:43:17.097Z,91.0
2019-06-26T03:44:16.384Z,91.1
2019-06-26T03:45:26.545Z,91.2
2019-06-26T03:46:16.993Z,91.4
2019-06-26T03:47:16.272Z,91.5
2019-06-26T03:48:16.542Z,91.5
2019-06-26T03:49:16.858Z,91.5
2019-06-26T03:50:17.188Z,91.5
2019-06-26T03:51:17.196Z,91.3
2019-06-26T03:52:16.509Z,91.2
2019-06-26T03:53:16.785Z,91.3
2019-06-26T03:54:17.057Z,91.2
2019-06-26T03:55:16.326Z,91.0
2019-06-26T03:56:16.593Z,91.0
2019-06-26T03:57:16.855Z,90.8
2019-06-26T03:58:17.139Z,90.7
2019-06-26T03:59:16.437Z,90.7
2019-06-26T04:00:16.727Z,90.6
2019-06-26T04:01:16.766Z,90.7
2019-06-26T04:02:17.060Z,90.5
2019-06-26T04:03:16.338Z,90.5
2019-06-26T04:04:16.736Z,90.3
2019-06-26T04:05:17.292Z,90.4
2019-06-26T04:06:16.572Z,90.4
2019-06-26T04:07:16.853Z,90.1
2019-06-26T04:08:17.128Z,90.1
2019-06-26T04:09:16.412Z,90.2
2019-06-26T04:10:16.691Z,90.2
2019-06-26T04:11:16.767Z,90.2
2019-06-26T04:12:17.038Z,90.2
2019-06-26T04:13:16.316Z,90.1
2019-06-26T04:14:16.591Z,90.0
2019-06-26T04:15:16.890Z,90.0
2019-06-26T04:16:17.210Z,89.8
2019-06-26T04:17:16.560Z,89.8
2019-06-26T04:18:16.872Z,89.5
2019-06-26T04:19:16.616Z,89.3
2019-06-26T04:20:16.917Z,89.3
2019-06-26T04:21:16.967Z,89.5
2019-06-26T04:22:17.235Z,89.3
2019-06-26T04:23:16.521Z,89.2
2019-06-26T04:24:16.803Z,89.0
2019-06-26T04:25:17.083Z,89.0
2019-06-26T04:26:16.635Z,89.1
2019-06-26T04:27:16.913Z,89.0
2019-06-26T04:28:17.198Z,88.8
2019-06-26T04:29:16.474Z,88.8
2019-06-26T04:30:16.762Z,88.6
2019-06-26T04:31:16.811Z,88.5
2019-06-26T04:32:17.085Z,88.5
2019-06-26T04:33:16.344Z,88.4
2019-06-26T04:34:16.613Z,88.3
2019-06-26T04:35:16.902Z,88.3
2019-06-26T04:36:17.171Z,88.2
2019-06-26T04:37:16.445Z,87.5
2019-06-26T04:38:16.731Z,87.7
2019-06-26T04:39:17.050Z,87.7
2019-06-26T04:40:16.354Z,87.8
2019-06-26T04:41:16.419Z,87.6
2019-06-26T04:42:16.700Z,87.4
2019-06-26T04:43:16.977Z,87.3
2019-06-26T04:44:17.261Z,87.4
2019-06-26T04:45:16.544Z,87.2
2019-06-26T04:46:16.824Z,87.0
2019-06-26T04:47:17.087Z,86.8
2019-06-26T04:48:16.351Z,86.5
2019-06-26T04:49:16.619Z,86.2
2019-06-26T04:50:16.910Z,86.0
2019-06-26T04:51:16.942Z,86.0
2019-06-26T04:52:17.213Z,85.9
2019-06-26T04:53:16.491Z,85.9
2019-06-26T04:54:16.758Z,85.4
2019-06-26T04:55:17.056Z,85.6
2019-06-26T04:56:16.328Z,85.5
2019-06-26T04:57:16.600Z,85.3
2019-06-26T04:58:16.894Z,85.1
2019-06-26T04:59:17.193Z,84.7
2019-06-26T05:00:16.478Z,84.7
2019-06-26T05:01:16.536Z,84.6
2019-06-26T05:02:16.810Z,84.3
2019-06-26T05:03:17.079Z,84.3
2019-06-26T05:04:16.355Z,84.2
2019-06-26T05:05:16.631Z,84.3
2019-06-26T05:06:16.894Z,84.0
2019-06-26T05:07:17.160Z,83.9
2019-06-26T05:08:16.440Z,83.5
2019-06-26T05:09:16.964Z,83.5
2019-06-26T05:10:16.313Z,83.3
2019-06-26T05:11:16.362Z,83.1
2019-06-26T05:12:16.626Z,82.3
2019-06-26T05:13:16.897Z,82.8
2019-06-26T05:14:17.171Z,83.0
2019-06-26T05:15:16.437Z,82.3
2019-06-26T05:16:20.757Z,82.0
2019-06-26T05:17:17.056Z,82.2
2019-06-26T05:18:16.340Z,82.1
2019-06-26T05:19:16.600Z,82.2
2019-06-26T05:20:16.878Z,81.8
2019-06-26T05:21:16.935Z,81.5
2019-06-26T05:22:17.205Z,81.4
2019-06-26T05:23:16.486Z,81.9
2019-06-26T05:24:16.755Z,80.7
2019-06-26T05:25:17.016Z,80.5
2019-06-26T05:26:16.287Z,80.0
2019-06-26T05:27:16.560Z,79.5
2019-06-26T05:28:16.832Z,79.2
2019-06-26T05:29:17.103Z,78.8
2019-06-26T05:30:16.454Z,79.1
2019-06-26T05:31:16.460Z,79.0
2019-06-26T05:32:16.738Z,79.0
2019-06-26T05:33:16.997Z,78.5
2019-06-26T05:34:16.275Z,78.5
2019-06-26T05:35:16.578Z,78.2
2019-06-26T05:36:16.853Z,78.5
2019-06-26T05:37:17.165Z,78.4
2019-06-26T05:38:16.468Z,78.8
2019-06-26T05:39:16.728Z,78.5
2019-06-26T05:40:17.081Z,78.2
2019-06-26T05:41:17.072Z,78.6
2019-06-26T05:42:16.342Z,78.4
2019-06-26T05:43:16.613Z,78.2
2019-06-26T05:44:16.891Z,77.9
2019-06-26T05:45:17.154Z,78.3
2019-06-26T05:46:31.269Z,78.4
2019-06-26T05:47:17.012Z,78.2
2019-06-26T05:48:16.290Z,78.0
2019-06-26T05:49:16.566Z,77.8
2019-06-26T05:50:16.849Z,76.9
2019-06-26T05:51:16.945Z,77.7
2019-06-26T05:52:17.205Z,77.4
2019-06-26T05:53:16.465Z,76.8
2019-06-26T05:54:16.735Z,76.1
2019-06-26T05:55:17.043Z,76.1
2019-06-26T05:56:16.332Z,76.6
2019-06-26T05:57:16.603Z,76.2
2019-06-26T05:58:16.883Z,75.7
2019-06-26T05:59:17.168Z,75.2
2019-06-26T06:00:16.904Z,75.2
2019-06-26T06:01:16.505Z,74.3
2019-06-26T06:02:16.776Z,74.9
2019-06-26T06:03:17.053Z,75.2
2019-06-26T06:04:16.347Z,74.1
2019-06-26T06:05:16.615Z,74.0
2019-06-26T06:06:16.892Z,73.6
2019-06-26T06:07:17.168Z,73.3
2019-06-26T06:08:16.495Z,72.8
2019-06-26T06:09:16.772Z,73.5
2019-06-26T06:10:17.118Z,73.5
2019-06-26T06:11:17.125Z,72.3
2019-06-26T06:12:16.457Z,71.7
2019-06-26T06:13:16.730Z,72.2
2019-06-26T06:14:17.004Z,71.4
2019-06-26T06:15:16.267Z,71.3
2019-06-26T06:16:16.582Z,71.4
2019-06-26T06:17:16.880Z,70.2
2019-06-26T06:18:17.155Z,68.9
2019-06-26T06:19:16.427Z,68.5
2019-06-26T06:20:16.724Z,69.7
2019-06-26T06:21:16.752Z,69.2
2019-06-26T06:22:17.067Z,68.5
2019-06-26T06:23:16.349Z,67.9
2019-06-26T06:24:16.621Z,67.1
2019-06-26T06:25:16.890Z,67.1
2019-06-26T06:26:17.191Z,65.7
2019-06-26T06:27:16.475Z,65.0
2019-06-26T06:28:16.746Z,65.4
2019-06-26T06:29:17.027Z,65.3
2019-06-26T06:30:16.320Z,64.9
2019-06-26T06:31:16.384Z,65.4
2019-06-26T06:32:16.681Z,64.5
2019-06-26T06:33:16.955Z,64.7
2019-06-26T06:34:17.262Z,63.4
2019-06-26T06:35:16.551Z,63.1
2019-06-26T06:36:16.823Z,64.6
2019-06-26T06:37:17.105Z,63.8
2019-06-26T06:38:16.376Z,63.0
2019-06-26T06:39:16.667Z,62.5
2019-06-26T06:40:16.965Z,63.0
2019-06-26T06:41:17.012Z,62.4
2019-06-26T06:42:16.271Z,62.7
2019-06-26T06:43:16.542Z,61.8
2019-06-26T06:44:16.813Z,61.0
2019-06-26T06:45:17.089Z,61.1
2019-06-26T06:46:16.363Z,61.0
2019-06-26T06:47:16.662Z,61.6
2019-06-26T06:48:16.930Z,60.9
2019-06-26T06:49:17.204Z,61.2
2019-06-26T06:50:16.486Z,58.6
2019-06-26T06:51:16.569Z,58.3
2019-06-26T06:52:17.042Z,59.6
2019-06-26T06:53:16.317Z,58.9
2019-06-26T06:54:16.600Z,58.3
2019-06-26T06:55:16.871Z,57.7
2019-06-26T06:56:17.143Z,58.4
2019-06-26T06:57:16.420Z,58.5
2019-06-26T06:58:16.686Z,59.5
2019-06-26T06:59:17.083Z,60.2
2019-06-26T07:00:16.885Z,57.8
2019-06-26T07:01:16.463Z,58.8
2019-06-26T07:02:16.756Z,59.1
2019-06-26T07:03:17.020Z,57.8
2019-06-26T07:04:16.291Z,57.5
2019-06-26T07:05:16.635Z,57.1
2019-06-26T07:06:16.915Z,58.0
2019-06-26T07:07:17.198Z,58.8
2019-06-26T07:08:16.468Z,59.4
2019-06-26T07:09:16.750Z,58.8
2019-06-26T07:10:17.027Z,59.6
2019-06-26T07:11:17.109Z,57.9
2019-06-26T07:12:16.381Z,57.9
2019-06-26T07:13:16.645Z,57.8
2019-06-26T07:14:16.920Z,57.4
2019-06-26T07:15:17.197Z,55.8
2019-06-26T07:16:16.471Z,55.7
2019-06-26T07:17:21.479Z,54.5
2019-06-26T07:18:16.830Z,54.8
2019-06-26T07:19:17.212Z,54.9
2019-06-26T07:20:16.508Z,56.5
2019-06-26T07:21:16.578Z,55.4
2019-06-26T07:22:16.957Z,54.2
2019-06-26T07:23:17.254Z,55.1
2019-06-26T07:24:16.545Z,54.6
2019-06-26T07:25:16.819Z,56.0
2019-06-26T07:26:17.079Z,56.9
2019-06-26T07:27:16.349Z,55.2
2019-06-26T07:28:16.821Z,54.6
2019-06-26T07:29:17.121Z,55.5
2019-06-26T07:30:16.409Z,55.5
2019-06-26T07:31:16.473Z,54.8
2019-06-26T07:32:16.761Z,54.8
2019-06-26T07:33:17.026Z,53.8
2019-06-26T07:34:16.295Z,53.5
2019-06-26T07:35:16.579Z,53.6
2019-06-26T07:36:16.857Z,54.0
2019-06-26T07:37:17.161Z,54.3
2019-06-26T07:38:16.433Z,54.9
2019-06-26T07:39:16.704Z,53.8
2019-06-26T07:40:16.986Z,53.8
2019-06-26T07:41:17.027Z,54.8
2019-06-26T07:42:16.313Z,55.5
2019-06-26T07:43:16.950Z,54.4
2019-06-26T07:44:17.227Z,54.1
2019-06-26T07:45:16.513Z,54.7
2019-06-26T07:46:16.785Z,54.7
2019-06-26T07:47:32.654Z,53.3
2019-06-26T07:48:16.390Z,54.2
2019-06-26T07:49:16.687Z,54.9
2019-06-26T07:50:16.979Z,54.6
2019-06-26T07:51:17.023Z,54.1
2019-06-26T07:52:16.325Z,53.6
2019-06-26T07:53:16.630Z,52.4
2019-06-26T07:54:16.909Z,53.7
2019-06-26T07:55:17.200Z,54.3
2019-06-26T07:56:16.481Z,54.9
2019-06-26T07:57:16.761Z,54.5
2019-06-26T07:58:17.085Z,52.3
2019-06-26T07:59:16.361Z,51.9
2019-06-26T08:00:16.795Z,51.8
2019-06-26T08:01:16.726Z,52.5
2019-06-26T08:02:16.992Z,51.6
2019-06-26T08:03:16.324Z,52.2
2019-06-26T08:04:16.599Z,51.4
2019-06-26T08:05:16.877Z,51.8
2019-06-26T08:06:17.156Z,51.6
2019-06-26T08:07:16.440Z,52.3
2019-06-26T08:08:16.725Z,52.7
2019-06-26T08:09:17.467Z,53.5
2019-06-26T08:10:16.837Z,51.9
2019-06-26T08:11:16.893Z,52.5
2019-06-26T08:12:17.167Z,52.6
2019-06-26T08:13:16.432Z,52.5
2019-06-26T08:14:16.700Z,52.8
2019-06-26T08:15:16.996Z,52.9
2019-06-26T08:16:16.273Z,53.0
2019-06-26T08:17:16.561Z,53.0
2019-06-26T08:18:16.833Z,53.4
2019-06-26T08:19:17.111Z,54.3
2019-06-26T08:20:16.390Z,52.9
2019-06-26T08:21:16.450Z,52.6
2019-06-26T08:22:16.720Z,52.9
2019-06-26T08:23:17.003Z,54.0
2019-06-26T08:24:16.277Z,53.0
2019-06-26T08:25:16.564Z,51.3
2019-06-26T08:26:16.836Z,52.0
2019-06-26T08:27:17.108Z,50.8
2019-06-26T08:28:16.377Z,51.2
2019-06-26T08:29:16.643Z,51.0
2019-06-26T08:30:16.947Z,50.5
2019-06-26T08:31:17.060Z,50.5
2019-06-26T08:32:16.365Z,49.7
2019-06-26T08:33:16.648Z,49.2
2019-06-26T08:34:16.924Z,50.2
2019-06-26T08:35:17.201Z,49.0
2019-06-26T08:36:16.469Z,49.9
2019-06-26T08:37:16.733Z,48.1
2019-06-26T08:38:16.998Z,49.1
2019-06-26T08:39:16.264Z,50.8
2019-06-26T08:40:16.583Z,50.0
2019-06-26T08:41:16.595Z,48.9
2019-06-26T08:42:16.869Z,49.7
2019-06-26T08:43:17.155Z,49.8
2019-06-26T08:44:16.435Z,49.5
2019-06-26T08:45:16.757Z,50.1
2019-06-26T08:46:17.039Z,50.2
2019-06-26T08:47:16.308Z,52.0
2019-06-26T08:48:38.659Z,51.8
2019-06-26T08:49:26.498Z,52.2
2019-06-26T08:50:16.977Z,49.1
2019-06-26T08:51:17.018Z,48.0
2019-06-26T08:52:16.284Z,49.8
2019-06-26T08:53:16.566Z,50.8
2019-06-26T08:54:16.862Z,50.5
2019-06-26T08:55:17.122Z,51.2
2019-06-26T08:56:16.454Z,52.2
2019-06-26T08:57:16.756Z,51.7
2019-06-26T08:58:17.144Z,51.5
2019-06-26T08:59:16.441Z,51.7
2019-06-26T09:00:16.733Z,51.9
2019-06-26T09:01:16.981Z,51.8
2019-06-26T09:02:16.301Z,50.9
2019-06-26T09:03:16.646Z,50.5
2019-06-26T09:04:16.981Z,50.8
2019-06-26T09:05:17.249Z,49.8
2019-06-26T09:06:16.534Z,49.3
2019-06-26T09:07:16.806Z,49.1
2019-06-26T09:08:17.273Z,49.5
2019-06-26T09:09:16.655Z,49.4
2019-06-26T09:10:16.950Z,49.5
2019-06-26T09:11:17.012Z,49.8
2019-06-26T09:12:16.285Z,50.3
2019-06-26T09:13:16.572Z,50.0
2019-06-26T09:14:16.864Z,49.0
2019-06-26T09:15:17.149Z,48.6
2019-06-26T09:16:16.432Z,48.3
2019-06-26T09:17:16.714Z,49.4
2019-06-26T09:18:35.231Z,48.7
2019-06-26T09:19:17.103Z,48.5
2019-06-26T09:20:16.391Z,48.8
2019-06-26T09:21:16.443Z,48.7
2019-06-26T09:22:16.708Z,48.7
2019-06-26T09:23:16.975Z,48.3
2019-06-26T09:24:17.262Z,48.1
2019-06-26T09:25:22.506Z,48.5
2019-06-26T09:26:16.928Z,50.2
2019-06-26T09:27:17.245Z,50.0
2019-06-26T09:28:16.531Z,49.0
2019-06-26T09:29:16.817Z,48.5
2019-06-26T09:30:17.106Z,46.8
2019-06-26T09:31:17.141Z,47.0
2019-06-26T09:32:16.455Z,47.8
2019-06-26T09:33:16.738Z,48.5
2019-06-26T09:34:17.041Z,48.0
2019-06-26T09:35:16.326Z,47.0
2019-06-26T09:36:16.595Z,47.6
2019-06-26T09:37:16.869Z,48.1
2019-06-26T09:38:17.152Z,47.7
2019-06-26T09:39:16.447Z,47.4
2019-06-26T09:40:16.730Z,47.5
2019-06-26T09:41:16.789Z,47.1
2019-06-26T09:42:19.965Z,47.8
2019-06-26T09:43:16.289Z,48.0
2019-06-26T09:44:16.557Z,46.5
2019-06-26T09:45:16.833Z,46.8
2019-06-26T09:46:17.111Z,45.5
2019-06-26T09:47:16.384Z,45.9
2019-06-26T09:48:16.659Z,45.8
2019-06-26T09:49:16.936Z,45.4
2019-06-26T09:50:17.214Z,43.7
2019-06-26T09:51:16.307Z,45.4
2019-06-26T09:52:16.575Z,44.2
2019-06-26T09:53:16.870Z,45.8
2019-06-26T09:54:17.151Z,44.8
2019-06-26T09:55:16.456Z,44.1
2019-06-26T09:56:16.742Z,44.1
2019-06-26T09:57:17.053Z,44.8
2019-06-26T09:58:16.338Z,45.6
2019-06-26T09:59:16.608Z,46.3
2019-06-26T10:00:16.896Z,46.5
2019-06-26T10:01:16.949Z,45.3
2019-06-26T10:02:17.210Z,45.5
2019-06-26T10:03:16.515Z,44.8
2019-06-26T10:04:16.783Z,46.5
2019-06-26T10:05:17.069Z,44.9
2019-06-26T10:06:16.356Z,46.7
2019-06-26T10:07:16.650Z,44.5
2019-06-26T10:08:16.952Z,45.7
2019-06-26T10:09:17.263Z,44.3
2019-06-26T10:10:16.547Z,42.5
2019-06-26T10:11:16.608Z,42.0
2019-06-26T10:12:16.881Z,42.5
2019-06-26T10:13:17.155Z,42.0
2019-06-26T10:14:16.429Z,43.5
2019-06-26T10:15:16.705Z,42.8
2019-06-26T10:16:17.055Z,42.6
2019-06-26T10:17:16.326Z,44.5
2019-06-26T10:18:16.594Z,43.9
2019-06-26T10:19:16.876Z,43.1
2019-06-26T10:20:17.156Z,42.5
2019-06-26T10:21:17.238Z,43.0
2019-06-26T10:22:16.503Z,43.2
2019-06-26T10:23:16.784Z,43.6
2019-06-26T10:24:17.053Z,42.5
2019-06-26T10:25:16.344Z,42.1
2019-06-26T10:26:16.620Z,43.0
2019-06-26T10:27:16.884Z,43.1
2019-06-26T10:28:17.175Z,43.5
2019-06-26T10:29:16.450Z,43.5
2019-06-26T10:30:16.760Z,43.2
2019-06-26T10:31:18.738Z,43.5
2019-06-26T10:32:17.023Z,42.9
2019-06-26T10:33:16.311Z,41.7
2019-06-26T10:34:16.599Z,43.1
2019-06-26T10:35:16.879Z,42.7
2019-06-26T10:36:17.156Z,40.8
2019-06-26T10:37:16.437Z,41.1
2019-06-26T10:38:16.745Z,41.8
2019-06-26T10:39:17.035Z,43.4
2019-06-26T10:40:16.978Z,44.5
2019-06-26T10:41:16.390Z,43.3
2019-06-26T10:42:16.670Z,43.1
2019-06-26T10:43:16.957Z,43.5
2019-06-26T10:44:16.305Z,44.8
2019-06-26T10:45:16.582Z,44.0
2019-06-26T10:46:16.861Z,45.6
2019-06-26T10:47:17.384Z,43.8
2019-06-26T10:48:16.694Z,43.5
2019-06-26T10:49:27.867Z,46.1
2019-06-26T10:50:16.375Z,43.5
2019-06-26T10:51:16.453Z,42.4
2019-06-26T10:52:16.721Z,41.8
2019-06-26T10:53:16.999Z,42.3
2019-06-26T10:54:16.288Z,41.9
2019-06-26T10:55:16.552Z,40.2
2019-06-26T10:56:16.840Z,41.9
2019-06-26T10:57:17.110Z,43.0
2019-06-26T10:58:16.384Z,44.6
2019-06-26T10:59:16.665Z,44.5
2019-06-26T11:00:16.966Z,43.5
2019-06-26T11:01:17.013Z,43.2
2019-06-26T11:02:17.229Z,43.6
2019-06-26T11:03:16.517Z,43.3
2019-06-26T11:04:16.797Z,43.5
2019-06-26T11:05:17.084Z,43.4
2019-06-26T11:06:16.378Z,41.7
2019-06-26T11:07:16.646Z,41.9
2019-06-26T11:08:16.920Z,43.8
2019-06-26T11:09:17.204Z,43.4
2019-06-26T11:10:16.487Z,41.7
2019-06-26T11:11:16.557Z,42.3
2019-06-26T11:12:16.842Z,42.1
2019-06-26T11:13:17.136Z,41.3
2019-06-26T11:14:16.431Z,42.9
2019-06-26T11:15:16.728Z,41.9
2019-06-26T11:16:17.016Z,40.2
2019-06-26T11:17:16.299Z,40.1
2019-06-26T11:18:16.579Z,40.4
2019-06-26T11:19:16.853Z,39.7
2019-06-26T11:20:17.149Z,39.2
2019-06-26T11:21:17.214Z,40.0
2019-06-26T11:22:16.491Z,41.5
2019-06-26T11:23:16.773Z,41.5
2019-06-26T11:24:17.052Z,42.9
2019-06-26T11:25:16.329Z,42.2
2019-06-26T11:26:16.607Z,41.9
2019-06-26T11:27:16.921Z,41.0
2019-06-26T11:28:17.207Z,39.2
2019-06-26T11:29:16.522Z,39.1
2019-06-26T11:30:16.824Z,40.0
2019-06-26T11:31:16.858Z,40.1
2019-06-26T11:32:17.143Z,40.4
2019-06-26T11:33:16.409Z,39.8
2019-06-26T11:34:16.724Z,40.1
2019-06-26T11:35:17.010Z,39.0
2019-06-26T11:36:16.290Z,39.6
2019-06-26T11:37:16.573Z,38.9
2019-06-26T11:38:16.853Z,38.5
2019-06-26T11:39:17.129Z,39.1
2019-06-26T11:40:16.417Z,38.5
2019-06-26T11:41:16.501Z,38.9
2019-06-26T11:42:16.788Z,40.0
2019-06-26T11:43:17.058Z,39.2
2019-06-26T11:44:16.329Z,39.0
2019-06-26T11:45:16.633Z,39.0
2019-06-26T11:46:16.915Z,37.9
2019-06-26T11:47:17.267Z,38.1
2019-06-26T11:48:16.593Z,38.4
2019-06-26T11:49:16.874Z,37.9
2019-06-26T11:50:17.287Z,39.0
2019-06-26T11:51:17.227Z,39.6
2019-06-26T11:52:16.513Z,40.2
2019-06-26T11:53:16.790Z,40.7
2019-06-26T11:54:17.063Z,41.2
2019-06-26T11:55:16.349Z,41.0
2019-06-26T11:56:16.644Z,41.1
2019-06-26T11:57:16.925Z,42.5
2019-06-26T11:58:17.224Z,41.6
2019-06-26T11:59:16.501Z,40.4
2019-06-26T12:00:16.782Z,40.2
2019-06-26T12:01:16.856Z,40.5
2019-06-26T12:02:17.598Z,40.6
2019-06-26T12:03:16.883Z,41.1
2019-06-26T12:04:17.168Z,41.3
2019-06-26T12:05:16.456Z,42.1
2019-06-26T12:06:19.440Z,42.0
2019-06-26T12:07:16.775Z,42.4
2019-06-26T12:08:18.693Z,41.9
2019-06-26T12:09:16.987Z,43.0
2019-06-26T12:10:17.294Z,42.6
2019-06-26T12:11:16.341Z,42.3
2019-06-26T12:12:16.624Z,43.1
2019-06-26T12:13:16.897Z,42.5
2019-06-26T12:14:17.176Z,42.0
2019-06-26T12:15:16.456Z,43.0
2019-06-26T12:16:16.728Z,42.3
2019-06-26T12:17:17.038Z,42.8
2019-06-26T12:18:16.420Z,43.2
2019-06-26T12:19:23.237Z,43.5
2019-06-26T12:20:19.892Z,43.9
2019-06-26T12:21:16.814Z,42.5
2019-06-26T12:22:17.078Z,43.2
2019-06-26T12:23:16.352Z,43.3
2019-06-26T12:24:16.649Z,43.2
2019-06-26T12:25:16.921Z,43.0
2019-06-26T12:26:17.194Z,42.8
2019-06-26T12:27:16.470Z,43.0
2019-06-26T12:28:16.762Z,43.5
2019-06-26T12:29:17.032Z,43.8
2019-06-26T12:30:16.297Z,43.6
2019-06-26T12:31:16.385Z,43.4
2019-06-26T12:32:16.649Z,43.6
2019-06-26T12:33:16.946Z,43.8
2019-06-26T12:34:17.217Z,43.5
2019-06-26T12:35:16.859Z,44.3
2019-06-26T12:36:17.129Z,43.1
2019-06-26T12:37:16.429Z,43.6
2019-06-26T12:38:16.704Z,44.8
2019-06-26T12:39:16.997Z,43.3
2019-06-26T12:40:16.295Z,44.0
2019-06-26T12:41:16.360Z,43.2
2019-06-26T12:42:16.648Z,44.2
2019-06-26T12:43:16.936Z,44.0
2019-06-26T12:44:17.227Z,44.1
2019-06-26T12:45:16.501Z,44.4
2019-06-26T12:46:18.433Z,43.5
2019-06-26T12:47:16.736Z,42.7
2019-06-26T12:48:16.998Z,42.9
2019-06-26T12:49:16.261Z,42.7
2019-06-26T12:50:16.629Z,42.8
2019-06-26T12:51:16.605Z,43.1
2019-06-26T12:52:17.283Z,43.8
2019-06-26T12:53:16.562Z,43.7
2019-06-26T12:54:16.854Z,44.5
2019-06-26T12:55:17.175Z,43.5
2019-06-26T12:56:16.452Z,43.3
2019-06-26T12:57:16.739Z,43.2
2019-06-26T12:58:20.371Z,44.5
2019-06-26T12:59:16.695Z,44.5
2019-06-26T13:00:16.996Z,44.2
2019-06-26T13:01:17.023Z,43.0
2019-06-26T13:02:16.304Z,43.0
2019-06-26T13:03:16.582Z,43.3
2019-06-26T13:04:16.847Z,41.2
2019-06-26T13:05:17.129Z,41.8
2019-06-26T13:06:16.415Z,41.0
2019-06-26T13:07:16.687Z,41.0
2019-06-26T13:08:16.955Z,41.0
2019-06-26T13:09:17.239Z,41.5
2019-06-26T13:10:16.522Z,41.5
2019-06-26T13:11:16.568Z,41.7
2019-06-26T13:12:16.835Z,41.2
2019-06-26T13:13:17.121Z,40.2
2019-06-26T13:14:16.392Z,39.0
2019-06-26T13:15:16.677Z,40.0
2019-06-26T13:16:16.998Z,40.4
2019-06-26T13:17:16.277Z,40.2
2019-06-26T13:18:16.556Z,40.6